CheckWX is a tool to help pilots better visualize weather data.  It is not intended as a substitute for an official pre-flight weather briefing.

02:55:04 UTC

LFRI METAR
La Roche-sur-Yon Airport
La Roche-sur-Yon/Les Ajoncs, France
Current

25 mins ago

LFRI 230230Z AUTO 09010KT CAVOK 09/06 Q1029
Observed
Feb-23 @ 02:30 UTC
Wind
  • 090° at 10 KTS
Visibility
10,000+ meters
Flight Rules
VFR
Cloud Levels
  • Clear skies
Temperature
C / 48°F
Dewpoint
C / 43°F
Humidity
82%
Altimeter
30.38" Hg
Pressure
1028.91 hPa
Previous

55 mins ago

LFRI 230200Z AUTO 09011KT CAVOK 10/06 Q1030
Observed
Feb-23 @ 02:00 UTC
Wind
  • 090° at 11 KTS
Visibility
10,000+ meters
Flight Rules
VFR
Cloud Levels
  • Clear skies
Temperature
10°C / 50°F
Dewpoint
C / 43°F
Humidity
76%
Altimeter
30.41" Hg
Pressure
1029.91 hPa
Previous

1 hour ago

LFRI 230130Z AUTO 09011KT CAVOK 10/06 Q1030
Observed
Feb-23 @ 01:30 UTC
Wind
  • 090° at 11 KTS
Visibility
10,000+ meters
Flight Rules
VFR
Cloud Levels
  • Clear skies
Temperature
10°C / 50°F
Dewpoint
C / 43°F
Humidity
76%
Altimeter
30.41" Hg
Pressure
1029.91 hPa